Time;durP1;ratioP1;P1;durP2;ratioP2;P2;SDS_P1;SDS_P2;PMS_P1;PMS_P2;Temp;Humidity;BMP_temperature;BMP_pressure;BME280_temperature;BME280_humidity;BME280_pressure;Samples;Min_cycle;Max_cycle;Signal;HPM_P1;HPM_P2
2022/11/17 00:00:19;;;;;;;1.63;1.50;;;17.30;67.20;18.40;98448.00;;;;5048155;28;20328;-50
2022/11/17 00:02:46;;;;;;;1.60;1.50;;;17.40;67.30;18.40;98458.00;;;;5030160;28;20715;-49
2022/11/17 00:05:12;;;;;;;1.60;1.50;;;17.30;67.20;18.40;98443.00;;;;5054976;28;20247;-49
2022/11/17 00:07:37;;;;;;;1.70;1.60;;;17.30;67.20;18.40;98453.00;;;;5054168;28;20170;-51
2022/11/17 00:10:04;;;;;;;1.80;1.60;;;17.40;67.30;18.40;98439.00;;;;5048366;28;20177;-49
2022/11/17 00:15:14;;;;;;;1.50;1.40;;;17.30;67.20;18.40;98411.00;;;;5058752;28;20203;-49
2022/11/17 00:17:40;;;;;;;1.57;1.47;;;17.30;67.20;18.40;98404.00;;;;5053724;28;20203;-49
2022/11/17 00:22:51;;;;;;;2.17;1.80;;;17.30;67.20;18.40;98373.00;;;;5047479;28;20302;-49
2022/11/17 00:25:17;;;;;;;1.40;1.30;;;17.30;67.20;18.40;98378.00;;;;5047832;28;20190;-50
2022/11/17 00:27:42;;;;;;;1.80;1.67;;;17.30;67.20;18.40;98363.00;;;;5047793;28;20179;-51
2022/11/17 00:34:03;;;;;;;1.53;1.30;;;17.30;67.10;18.30;98346.00;;;;5047923;28;20298;-50
2022/11/17 00:35:39;;;;;;;1.97;1.50;;;17.30;67.20;18.30;98340.00;;;;5032972;28;20339;-49
2022/11/17 00:38:17;;;;;;;1.70;1.60;;;17.30;67.20;18.30;98344.00;;;;5048024;28;20659;-51
2022/11/17 00:40:42;;;;;;;1.63;1.50;;;17.30;67.20;18.30;98347.00;;;;5047942;28;20153;-49
2022/11/17 00:43:08;;;;;;;1.80;1.60;;;17.20;67.10;18.30;98337.00;;;;5046941;28;20509;-50
2022/11/17 00:45:34;;;;;;;1.60;1.50;;;17.20;67.10;18.30;98349.00;;;;5029628;28;20190;-49
2022/11/17 00:48:00;;;;;;;1.40;1.30;;;17.20;67.10;18.30;98348.00;;;;5047329;28;20181;-49
2022/11/17 00:50:25;;;;;;;1.80;1.70;;;17.20;67.10;18.30;98328.00;;;;5050282;28;20180;-49
2022/11/17 00:52:51;;;;;;;1.60;1.50;;;17.20;67.20;18.30;98252.00;;;;5051418;28;20173;-50
2022/11/17 00:55:17;;;;;;;1.70;1.60;;;17.20;67.20;18.30;98332.00;;;;5050577;28;20205;-49
2022/11/17 00:57:42;;;;;;;1.47;1.37;;;17.10;67.10;18.30;98322.00;;;;5051971;28;20209;-49
2022/11/17 01:00:09;;;;;;;1.53;1.43;;;17.20;67.20;18.00;98329.00;;;;5050830;28;20178;-49
2022/11/17 01:02:34;;;;;;;1.40;1.30;;;17.10;67.00;18.30;98325.00;;;;5051240;28;20173;-48
2022/11/17 01:05:00;;;;;;;1.93;1.70;;;17.20;67.20;18.30;98313.00;;;;5051375;28;20242;-49
2022/11/17 01:07:26;;;;;;;1.43;1.33;;;17.10;67.10;18.20;98315.00;;;;5051602;28;20168;-48
2022/11/17 01:09:52;;;;;;;1.87;1.67;;;17.20;67.20;18.30;98312.00;;;;5051388;28;20295;-50
2022/11/17 01:12:17;;;;;;;2.03;1.83;;;17.10;67.10;18.20;98296.00;;;;5051278;28;20641;-49
2022/11/17 01:14:43;;;;;;;1.70;1.60;;;17.10;67.10;18.20;98315.00;;;;5051499;28;20329;-49
2022/11/17 01:17:09;;;;;;;1.70;1.60;;;17.10;67.10;18.20;98312.00;;;;5051599;28;20208;-48
2022/11/17 01:19:34;;;;;;;1.60;1.50;;;17.10;67.10;18.20;98288.00;;;;5051491;28;20523;-50
2022/11/17 01:22:00;;;;;;;1.60;1.50;;;17.10;67.10;18.20;98291.00;;;;5051306;28;20169;-48
2022/11/17 01:24:26;;;;;;;1.70;1.60;;;17.10;67.20;18.20;98286.00;;;;5051160;28;20186;-49
2022/11/17 01:26:52;;;;;;;1.43;1.33;;;17.10;67.10;18.20;98287.00;;;;5051230;28;20179;-50
2022/11/17 01:29:18;;;;;;;1.70;1.60;;;17.10;67.10;18.20;98290.00;;;;5053762;28;20806;-51
2022/11/17 01:31:44;;;;;;;1.20;1.20;;;17.10;67.10;18.20;98291.00;;;;5058615;28;20169;-50
2022/11/17 01:34:09;;;;;;;1.40;1.33;;;17.10;67.10;18.20;98285.00;;;;5051117;28;20595;-48
2022/11/17 01:39:23;;;;;;;1.50;1.40;;;17.10;67.20;18.10;98264.00;;;;5049753;28;20163;-48
2022/11/17 01:41:49;;;;;;;1.57;1.47;;;17.10;67.20;18.20;98272.00;;;;5050810;28;20173;-50
2022/11/17 01:44:57;;;;;;;1.67;1.57;;;17.00;67.10;18.20;98255.00;;;;5050938;28;20607;-50
2022/11/17 01:47:57;;;;;;;1.83;1.60;;;17.00;67.10;18.10;98242.00;;;;4988807;28;20211;-49
2022/11/17 01:50:33;;;;;;;1.60;1.50;;;17.00;67.10;18.10;98229.00;;;;4975238;28;20195;-49
2022/11/17 01:53:01;;;;;;;1.40;1.40;;;17.00;67.10;18.10;98216.00;;;;5021660;28;20654;-49
2022/11/17 01:55:38;;;;;;;2.07;1.70;;;17.00;67.10;18.10;98204.00;;;;5050564;28;20743;-49
2022/11/17 01:58:11;;;;;;;1.60;1.50;;;17.00;67.10;18.10;98208.00;;;;5050752;28;20187;-49
2022/11/17 02:00:37;;;;;;;1.60;1.50;;;17.00;67.00;18.10;98208.00;;;;5049386;28;20256;-49
2022/11/17 02:03:05;;;;;;;1.43;1.33;;;17.00;67.00;18.10;98195.00;;;;5050332;28;20285;-50
2022/11/17 02:05:51;;;;;;;1.50;1.40;;;17.00;67.10;18.10;98191.00;;;;5033246;28;20201;-49
2022/11/17 02:08:18;;;;;;;1.70;1.60;;;17.00;67.00;18.10;98187.00;;;;5049154;28;20182;-50
2022/11/17 02:10:44;;;;;;;1.80;1.70;;;17.00;67.10;18.10;98200.00;;;;5049215;28;20191;-50
2022/11/17 02:13:10;;;;;;;1.77;1.60;;;17.00;67.10;18.10;98197.00;;;;5048769;28;20649;-48
2022/11/17 02:15:35;;;;;;;1.97;1.60;;;17.00;67.10;18.10;98189.00;;;;5049991;28;20204;-50
2022/11/17 02:18:01;;;;;;;1.60;1.50;;;17.00;67.00;18.10;98088.00;;;;5049966;28;20197;-50
2022/11/17 02:20:58;;;;;;;1.70;1.60;;;16.90;67.00;18.10;98165.00;;;;5048813;28;20171;-50
2022/11/17 02:24:15;;;;;;;1.77;1.67;;;16.90;67.00;18.10;98167.00;;;;5048401;28;20184;-49
2022/11/17 02:26:55;;;;;;;1.43;1.33;;;17.00;67.10;18.00;98168.00;;;;5016354;28;20196;-51
2022/11/17 02:29:24;;;;;;;1.63;1.50;;;16.90;67.00;18.00;98164.00;;;;5048707;28;20251;-49
2022/11/17 02:32:44;;;;;;;1.70;1.60;;;16.90;67.10;18.00;98163.00;;;;5048417;28;20172;-49
2022/11/17 02:35:24;;;;;;;1.57;1.47;;;16.90;67.00;18.00;98170.00;;;;5018357;28;20289;-49
2022/11/17 02:38:12;;;;;;;1.50;1.40;;;16.90;67.00;18.00;98159.00;;;;5048445;28;20230;-48
2022/11/17 02:40:50;;;;;;;1.43;1.33;;;16.90;67.00;17.90;98156.00;;;;5048933;28;20166;-48
2022/11/17 02:46:09;;;;;;;1.60;1.50;;;16.90;67.00;17.90;98157.00;;;;5048635;28;20163;-50
2022/11/17 02:48:46;;;;;;;1.70;1.60;;;16.80;67.00;17.90;98154.00;;;;5048326;28;20186;-51
2022/11/17 02:51:19;;;;;;;1.67;1.47;;;16.90;67.10;17.90;98143.00;;;;5048400;28;20150;-49
2022/11/17 02:53:45;;;;;;;1.50;1.40;;;16.90;67.20;17.90;98144.00;;;;5048062;28;20158;-50
2022/11/17 02:56:10;;;;;;;1.50;1.40;;;16.90;67.20;17.90;98131.00;;;;5048106;28;20193;-49
2022/11/17 02:58:36;;;;;;;1.30;1.20;;;16.80;67.00;17.90;98132.00;;;;5049227;28;20197;-50
2022/11/17 03:01:23;;;;;;;1.50;1.40;;;16.80;67.00;17.80;98128.00;;;;5049348;28;20172;-49
2022/11/17 03:04:30;;;;;;;1.50;1.40;;;16.70;67.20;17.80;98124.00;;;;5048074;28;20520;-48
2022/11/17 03:07:48;;;;;;;1.40;1.30;;;16.80;67.30;17.60;98121.00;;;;5064835;28;20188;-51
2022/11/17 03:10:29;;;;;;;1.50;1.40;;;16.70;67.30;17.80;98107.00;;;;5007815;28;20201;-49
2022/11/17 03:13:11;;;;;;;1.63;1.53;;;16.70;67.30;17.80;98112.00;;;;5006940;28;20171;-50
2022/11/17 03:15:52;;;;;;;1.70;1.60;;;16.70;67.40;17.80;98105.00;;;;5024397;28;20567;-49
2022/11/17 03:18:28;;;;;;;1.40;1.30;;;16.70;67.30;17.80;98105.00;;;;5048024;28;20273;-49
2022/11/17 03:21:27;;;;;;;1.50;1.40;;;16.70;67.30;17.80;98108.00;;;;5047467;28;20186;-51
2022/11/17 03:24:27;;;;;;;1.60;1.50;;;16.70;67.30;17.70;98117.00;;;;5047724;28;20174;-48
2022/11/17 03:27:01;;;;;;;1.43;1.33;;;16.70;67.40;17.70;98109.00;;;;5047521;28;20211;-50
2022/11/17 03:29:29;;;;;;;1.60;1.50;;;16.70;67.40;17.70;98096.00;;;;5047888;28;20591;-49
2022/11/17 03:31:59;;;;;;;1.50;1.40;;;16.60;67.40;17.70;98090.00;;;;5047328;28;20167;-50
2022/11/17 03:34:26;;;;;;;1.73;1.50;;;16.60;67.40;17.70;98098.00;;;;5047770;28;20193;-49
2022/11/17 03:36:54;;;;;;;2.73;1.57;;;16.60;67.40;17.70;98094.00;;;;5047790;28;20257;-51
2022/11/17 03:39:34;;;;;;;1.40;1.30;;;16.60;67.40;17.70;98076.00;;;;5047531;28;20336;-49
2022/11/17 03:42:15;;;;;;;1.30;1.20;;;16.60;67.50;17.70;98080.00;;;;5047379;28;20726;-50
2022/11/17 03:44:43;;;;;;;1.70;1.60;;;16.60;67.50;17.70;98078.00;;;;5047001;28;20261;-49
2022/11/17 03:47:09;;;;;;;1.47;1.37;;;16.60;67.60;17.70;98074.00;;;;5047151;28;20267;-49
2022/11/17 03:50:05;;;;;;;1.40;1.30;;;16.60;67.60;17.70;98048.00;;;;5047148;28;20301;-49
2022/11/17 03:52:30;;;;;;;1.50;1.40;;;16.50;67.50;17.70;98042.00;;;;5013929;28;20183;-49
2022/11/17 03:54:56;;;;;;;1.63;1.53;;;16.60;67.60;17.70;98052.00;;;;5046714;28;20230;-50
2022/11/17 03:57:35;;;;;;;1.23;1.13;;;16.50;67.50;17.70;98041.00;;;;5048512;28;20655;-49
2022/11/17 04:00:05;;;;;;;1.60;1.50;;;16.60;67.60;17.70;98050.00;;;;5046821;28;20212;-49
2022/11/17 04:02:31;;;;;;;1.57;1.47;;;16.50;67.50;17.70;98057.00;;;;5030108;28;20179;-48
2022/11/17 04:05:05;;;;;;;1.33;1.23;;;16.50;67.40;17.70;98044.00;;;;5046710;28;20190;-49
2022/11/17 04:07:36;;;;;;;1.60;1.50;;;16.50;67.50;17.70;98042.00;;;;5048133;28;20185;-49
2022/11/17 04:10:03;;;;;;;1.50;1.40;;;16.50;67.50;17.70;98040.00;;;;5048171;28;20166;-49
2022/11/17 04:17:57;;;;;;;1.50;1.40;;;16.50;67.60;17.70;98027.00;;;;5048532;28;20272;-49
2022/11/17 04:20:23;;;;;;;1.27;1.27;;;16.50;67.50;17.40;98021.00;;;;5048706;28;20166;-50
2022/11/17 04:23:05;;;;;;;1.33;1.27;;;16.50;67.60;17.70;98014.00;;;;5048145;28;20186;-49
2022/11/17 04:28:38;;;;;;;1.50;1.40;;;16.50;67.60;17.60;98026.00;;;;5068061;28;20300;-50
2022/11/17 04:31:12;;;;;;;1.40;1.30;;;16.40;67.50;17.60;98025.00;;;;5067691;28;20215;-49
2022/11/17 04:33:43;;;;;;;2.60;1.40;;;16.50;67.60;17.60;97957.00;;;;5049676;28;20232;-49
2022/11/17 04:36:10;;;;;;;1.30;1.20;;;16.40;67.60;17.60;98041.00;;;;5067698;28;20158;-51
2022/11/17 04:38:36;;;;;;;1.37;1.27;;;16.50;67.60;17.60;98037.00;;;;5067646;28;20293;-50
2022/11/17 04:43:48;;;;;;;5.37;1.40;;;16.40;68.00;17.60;98014.00;;;;5067883;28;20468;-48
2022/11/17 04:46:15;;;;;;;5.83;1.73;;;16.40;67.60;17.60;98004.00;;;;5067814;28;20204;-52
2022/11/17 04:48:41;;;;;;;2.33;1.50;;;16.40;67.60;17.60;98001.00;;;;5068943;28;20188;-52
2022/11/17 04:51:06;;;;;;;5.83;1.57;;;16.40;67.60;17.60;98003.00;;;;5068520;28;20174;-54
2022/11/17 04:53:32;;;;;;;4.07;1.47;;;16.50;67.50;17.60;98002.00;;;;5068587;28;20174;-50
2022/11/17 04:56:01;;;;;;;2.53;1.43;;;16.50;67.40;17.60;97988.00;;;;5068438;28;20197;-51
2022/11/17 04:58:27;;;;;;;3.90;1.60;;;16.50;67.40;17.60;97995.00;;;;5050437;28;20625;-53
2022/11/17 05:00:53;;;;;;;2.37;1.40;;;16.50;67.40;17.50;97992.00;;;;5068899;28;20197;-51
2022/11/17 05:03:19;;;;;;;1.73;1.43;;;16.40;67.30;17.50;97992.00;;;;5068529;28;20200;-53
2022/11/17 05:05:47;;;;;;;3.13;1.40;;;16.40;67.40;17.50;97991.00;;;;5068643;28;20191;-52
2022/11/17 05:08:13;;;;;;;1.63;1.50;;;16.40;67.40;17.50;97985.00;;;;5051121;28;20216;-52
2022/11/17 05:13:24;;;;;;;2.20;1.20;;;16.40;67.30;17.50;97969.00;;;;5064693;28;20235;-50
2022/11/17 05:18:41;;;;;;;1.60;1.50;;;16.30;67.20;17.50;97979.00;;;;5068110;28;20682;-53
2022/11/17 05:21:08;;;;;;;1.53;1.23;;;16.30;67.10;17.50;97974.00;;;;5067734;28;20253;-51
2022/11/17 05:26:19;;;;;;;1.53;1.40;;;16.30;67.20;17.40;97981.00;;;;5053096;28;20731;-52
2022/11/17 05:28:45;;;;;;;2.47;1.50;;;16.30;67.30;17.40;97983.00;;;;5067968;28;20658;-52
2022/11/17 05:31:11;;;;;;;2.50;1.50;;;16.30;67.20;17.40;97979.00;;;;5049750;28;20209;-51
2022/11/17 05:33:36;;;;;;;2.27;1.30;;;16.30;67.50;17.40;97983.00;;;;5067549;28;20178;-51
2022/11/17 05:36:03;;;;;;;3.73;1.57;;;16.30;67.30;17.40;97973.00;;;;5067878;28;20155;-51
2022/11/17 05:38:28;;;;;;;1.47;1.37;;;16.30;67.20;17.40;97984.00;;;;5037176;28;20201;-51
2022/11/17 05:40:54;;;;;;;1.40;1.30;;;16.30;67.20;17.40;97984.00;;;;5071253;28;20234;-49
2022/11/17 05:43:20;;;;;;;2.23;1.60;;;16.20;67.20;17.40;97988.00;;;;5070795;28;20187;-51
2022/11/17 05:45:46;;;;;;;2.17;1.50;;;16.30;67.20;17.40;97986.00;;;;5071589;28;20577;-51
2022/11/17 05:48:11;;;;;;;1.33;1.20;;;16.20;67.20;17.40;97994.00;;;;5071656;28;20164;-51
2022/11/17 05:50:37;;;;;;;2.10;1.50;;;16.20;67.20;17.40;97977.00;;;;5071520;28;20518;-51
2022/11/17 05:53:03;;;;;;;2.43;1.37;;;16.20;67.00;17.30;97982.00;;;;5053782;28;20308;-50
2022/11/17 05:55:29;;;;;;;2.33;1.50;;;16.20;67.20;17.40;97990.00;;;;5074412;28;20197;-51
2022/11/17 05:57:55;;;;;;;2.50;1.33;;;16.20;67.10;17.40;97979.00;;;;5074369;28;20207;-51
2022/11/17 06:00:21;;;;;;;1.97;1.30;;;16.20;67.10;17.40;97989.00;;;;5053038;28;20182;-53
2022/11/17 06:02:50;;;;;;;2.23;1.60;;;16.20;67.10;17.30;97980.00;;;;5053288;28;20228;-51
2022/11/17 06:05:16;;;;;;;4.73;1.47;;;16.20;67.20;17.30;97994.00;;;;5053552;28;20189;-51
2022/11/17 06:07:42;;;;;;;4.10;1.70;;;16.20;67.10;17.30;97984.00;;;;5036710;28;20648;-51
2022/11/17 06:10:08;;;;;;;4.53;1.60;;;16.20;67.20;17.30;97979.00;;;;5052897;28;20239;-51
2022/11/17 06:12:34;;;;;;;4.57;1.90;;;16.20;67.20;17.30;97989.00;;;;5070706;28;20643;-50
2022/11/17 06:15:00;;;;;;;6.07;1.93;;;16.20;67.20;17.30;97995.00;;;;5070768;28;20749;-51
2022/11/17 06:17:33;;;;;;;9.10;2.27;;;16.20;67.40;17.30;98002.00;;;;5070266;28;20209;-51
2022/11/17 06:20:20;;;;;;;5.73;2.10;;;16.30;67.40;17.40;98029.00;;;;5070825;28;20154;-50
2022/11/17 06:22:46;;;;;;;8.10;2.37;;;16.30;67.30;17.40;98037.00;;;;5071288;28;20174;-51
2022/11/17 06:25:12;;;;;;;7.17;2.33;;;16.30;67.20;17.40;98050.00;;;;5072494;28;20198;-50
2022/11/17 06:27:38;;;;;;;4.73;2.27;;;16.30;67.20;17.40;98042.00;;;;5070911;28;20170;-51
2022/11/17 06:30:04;;;;;;;6.07;2.20;;;16.30;67.20;17.40;98038.00;;;;5071059;28;20180;-50
2022/11/17 06:32:31;;;;;;;6.60;2.30;;;16.30;67.20;17.40;98040.00;;;;5052542;28;20668;-50
2022/11/17 06:34:57;;;;;;;7.67;2.20;;;16.30;67.20;17.40;98051.00;;;;5053018;28;20195;-50
2022/11/17 06:37:23;;;;;;;5.07;2.17;;;16.30;67.20;17.40;98053.00;;;;5052582;28;20683;-50
2022/11/17 06:39:49;;;;;;;6.50;2.07;;;16.30;67.20;17.40;98034.00;;;;5070354;28;20162;-50
2022/11/17 06:42:15;;;;;;;4.90;1.80;;;16.30;67.30;17.40;98060.00;;;;5052320;28;20171;-50
2022/11/17 06:44:41;;;;;;;5.00;2.43;;;16.30;67.30;17.40;98049.00;;;;5070226;28;20190;-51
2022/11/17 06:47:06;;;;;;;5.33;1.90;;;16.30;67.40;17.40;98052.00;;;;5052845;28;20575;-51
2022/11/17 06:49:32;;;;;;;4.80;2.07;;;16.30;67.30;17.40;98052.00;;;;5070339;28;20178;-51
2022/11/17 06:51:58;;;;;;;6.20;2.00;;;16.30;67.20;17.40;98036.00;;;;5052124;28;20580;-51
2022/11/17 06:54:23;;;;;;;7.20;2.50;;;16.30;67.20;17.40;98046.00;;;;5070042;28;20204;-51
2022/11/17 06:56:51;;;;;;;5.53;2.00;;;16.30;67.30;17.40;98043.00;;;;5070586;28;20192;-50
2022/11/17 06:59:16;;;;;;;3.60;2.10;;;16.30;67.20;17.40;98032.00;;;;5070647;28;20237;-50
2022/11/17 07:01:42;;;;;;;4.50;2.13;;;16.30;67.40;17.40;98040.00;;;;5069763;28;20201;-51
2022/11/17 07:04:08;;;;;;;3.43;2.00;;;16.30;67.40;17.40;98043.00;;;;5070187;28;20667;-51
2022/11/17 07:06:37;;;;;;;5.20;1.87;;;16.30;67.40;17.40;98042.00;;;;5052501;28;20534;-51
2022/11/17 07:09:04;;;;;;;5.23;2.07;;;16.30;67.40;17.40;98043.00;;;;5069937;28;20186;-52
2022/11/17 07:11:29;;;;;;;4.03;2.00;;;16.30;67.40;17.40;98037.00;;;;5069105;28;20175;-51
2022/11/17 07:13:57;;;;;;;2.57;1.90;;;16.30;67.50;17.50;98042.00;;;;5052128;28;20173;-50
2022/11/17 07:16:22;;;;;;;9.33;2.27;;;16.30;67.40;17.40;98046.00;;;;5069825;28;20198;-51
2022/11/17 07:18:48;;;;;;;5.60;2.07;;;16.20;67.40;17.40;98043.00;;;;5070160;28;20711;-49
2022/11/17 07:21:14;;;;;;;3.60;2.20;;;16.20;67.40;17.40;98044.00;;;;5068884;28;20609;-50
2022/11/17 07:23:41;;;;;;;4.57;1.90;;;16.20;67.40;17.40;98048.00;;;;5070945;28;20243;-52
2022/11/17 07:26:07;;;;;;;3.30;1.80;;;16.30;67.50;17.40;98038.00;;;;5069505;28;20549;-53
2022/11/17 07:28:33;;;;;;;2.73;1.87;;;16.20;67.40;17.40;98045.00;;;;5069508;28;20173;-51
2022/11/17 07:31:03;;;;;;;2.53;1.90;;;16.20;67.40;17.40;98042.00;;;;5069358;28;20253;-51
2022/11/17 07:33:29;;;;;;;2.73;1.80;;;16.20;67.60;17.40;98037.00;;;;5051801;28;20579;-51
2022/11/17 07:35:55;;;;;;;2.80;1.80;;;16.20;67.60;17.30;98053.00;;;;5069661;28;20216;-53
2022/11/17 07:38:21;;;;;;;5.30;1.80;;;16.20;67.70;17.30;98039.00;;;;5069639;28;20562;-51
2022/11/17 07:40:47;;;;;;;5.07;1.87;;;16.10;67.80;17.30;98053.00;;;;5050171;28;20187;-51
2022/11/17 07:43:13;;;;;;;2.67;2.00;;;16.10;67.90;17.30;98066.00;;;;5049318;28;20682;-51
2022/11/17 07:45:38;;;;;;;2.70;1.80;;;16.10;67.90;17.20;98068.00;;;;5049276;28;20195;-51
2022/11/17 07:48:05;;;;;;;3.40;1.80;;;16.10;67.90;17.20;98066.00;;;;5049245;28;20180;-51
2022/11/17 07:50:31;;;;;;;4.80;1.80;;;16.10;68.50;17.20;98074.00;;;;5049460;28;20171;-53
2022/11/17 07:52:57;;;;;;;3.70;1.80;;;16.10;67.90;17.20;98073.00;;;;5030691;28;20178;-50
2022/11/17 07:55:23;;;;;;;3.73;1.90;;;16.10;67.90;17.20;98081.00;;;;5049059;28;20199;-51
2022/11/17 07:57:59;;;;;;;2.50;1.80;;;16.10;68.00;17.20;98078.00;;;;5049038;28;20281;-51
2022/11/17 08:00:27;;;;;;;2.93;1.90;;;16.10;67.90;17.20;98080.00;;;;5048185;28;20280;-51
2022/11/17 08:02:53;;;;;;;3.53;1.80;;;16.10;68.00;17.20;98091.00;;;;5049242;28;20639;-51
2022/11/17 08:05:18;;;;;;;2.37;1.77;;;16.10;67.90;17.20;98109.00;;;;5049247;28;20194;-51
2022/11/17 08:07:44;;;;;;;4.17;2.07;;;16.10;67.90;17.10;98111.00;;;;5048951;28;20554;-51
2022/11/17 08:10:12;;;;;;;2.20;1.70;;;16.10;68.00;17.10;98129.00;;;;5048851;28;20200;-51
2022/11/17 08:12:37;;;;;;;2.33;1.70;;;16.10;68.00;17.10;98127.00;;;;5048264;28;20209;-52
2022/11/17 08:15:04;;;;;;;2.43;1.90;;;16.10;68.00;17.10;98127.00;;;;5048591;28;20217;-52
2022/11/17 08:17:30;;;;;;;1.90;1.60;;;16.10;67.90;17.20;98133.00;;;;5048326;28;20589;-51
2022/11/17 08:19:56;;;;;;;2.10;1.80;;;16.10;67.90;17.20;98142.00;;;;5048499;28;20171;-51
2022/11/17 08:22:23;;;;;;;1.90;1.70;;;16.10;67.90;17.20;98144.00;;;;5048629;28;20194;-53
2022/11/17 08:24:49;;;;;;;4.23;2.07;;;16.10;68.70;17.20;98151.00;;;;5048488;28;20638;-52
2022/11/17 08:27:15;;;;;;;3.93;1.70;;;16.10;68.10;17.20;98155.00;;;;5064510;28;20185;-52
2022/11/17 08:29:41;;;;;;;4.43;1.90;;;16.10;68.10;17.20;98145.00;;;;5065221;28;20173;-51
2022/11/17 08:32:06;;;;;;;2.17;1.77;;;16.10;68.00;17.20;98160.00;;;;5015077;28;20186;-52
2022/11/17 08:34:32;;;;;;;2.30;1.80;;;16.10;67.90;17.20;98155.00;;;;5068195;28;20194;-52
2022/11/17 08:36:58;;;;;;;5.40;1.87;;;16.10;68.00;17.20;98152.00;;;;5037855;28;20174;-52
2022/11/17 08:39:24;;;;;;;3.63;1.60;;;16.20;68.20;17.30;98162.00;;;;5048398;28;20856;-51
2022/11/17 08:41:51;;;;;;;4.80;1.80;;;16.20;68.40;17.30;98155.00;;;;5047777;28;20178;-52
2022/11/17 08:44:16;;;;;;;2.30;1.80;;;16.30;68.60;17.30;98164.00;;;;5048191;28;20710;-50
2022/11/17 08:46:42;;;;;;;2.57;1.57;;;16.40;68.70;17.30;98167.00;;;;5048513;28;20167;-51
2022/11/17 08:49:08;;;;;;;2.70;1.87;;;16.50;68.60;17.40;98158.00;;;;5061170;28;20182;-51
2022/11/17 08:51:34;;;;;;;3.03;1.90;;;16.60;68.40;17.40;98154.00;;;;5051418;28;20185;-52
2022/11/17 08:54:00;;;;;;;3.17;1.70;;;16.70;68.20;17.50;98168.00;;;;5048964;28;20748;-51
2022/11/17 08:56:25;;;;;;;3.00;1.80;;;16.80;68.10;17.60;98160.00;;;;5048146;28;20208;-51
2022/11/17 08:58:51;;;;;;;2.80;1.70;;;17.00;67.90;17.70;98165.00;;;;5048225;28;20208;-50
2022/11/17 09:01:17;;;;;;;2.20;1.53;;;17.10;67.60;17.80;98177.00;;;;5047996;28;20578;-50
2022/11/17 09:03:44;;;;;;;6.33;1.70;;;17.30;67.50;17.90;98179.00;;;;5048412;28;20249;-51
2022/11/17 09:06:11;;;;;;;3.53;1.43;;;17.40;67.80;18.00;98183.00;;;;5048099;28;20247;-50
2022/11/17 09:08:37;;;;;;;2.90;1.57;;;17.50;68.00;18.10;98181.00;;;;5048655;28;20188;-51
2022/11/17 09:11:07;;;;;;;4.57;1.63;;;17.70;67.70;18.20;98181.00;;;;5032138;28;20180;-51
2022/11/17 09:13:33;;;;;;;3.27;1.63;;;17.80;67.60;18.30;98183.00;;;;5035506;28;20358;-50
2022/11/17 09:16:01;;;;;;;5.53;1.70;;;17.90;67.30;18.40;98188.00;;;;5051867;28;20872;-49
2022/11/17 09:18:27;;;;;;;4.50;1.60;;;18.10;67.30;18.50;98181.00;;;;5052142;28;20211;-51
2022/11/17 09:21:01;;;;;;;3.63;1.70;;;18.20;67.30;18.60;98183.00;;;;5051646;28;20556;-50
2022/11/17 09:23:28;;;;;;;3.30;1.60;;;18.30;67.20;18.70;98201.00;;;;5051841;28;20176;-50
2022/11/17 09:25:53;;;;;;;3.70;1.70;;;18.30;67.10;18.70;98207.00;;;;5051365;28;20194;-49
2022/11/17 09:28:19;;;;;;;1.47;1.33;;;18.30;67.20;18.80;98205.00;;;;5055485;28;20191;-49
2022/11/17 09:30:45;;;;;;;3.53;1.60;;;18.40;67.40;18.80;98212.00;;;;5051694;28;20550;-50
2022/11/17 09:33:11;;;;;;;2.73;1.67;;;18.40;67.50;18.90;98213.00;;;;5014932;28;20270;-50
2022/11/17 09:35:36;;;;;;;2.10;1.40;;;18.40;67.50;18.90;98219.00;;;;5065787;28;20204;-51
2022/11/17 09:38:02;;;;;;;1.93;1.60;;;18.40;67.70;19.00;98218.00;;;;5072121;28;20193;-50
2022/11/17 09:40:28;;;;;;;2.60;1.50;;;18.30;67.60;19.00;98219.00;;;;5071240;28;20708;-51
2022/11/17 09:42:54;;;;;;;2.43;1.40;;;18.30;67.60;19.00;98231.00;;;;5071464;28;20712;-51
2022/11/17 09:45:24;;;;;;;1.47;1.37;;;18.30;67.60;19.00;98214.00;;;;5052297;28;20208;-51
2022/11/17 09:48:01;;;;;;;1.67;1.57;;;18.30;67.70;19.00;98223.00;;;;5021262;28;20170;-51
2022/11/17 09:50:31;;;;;;;1.67;1.37;;;18.30;67.90;19.10;98216.00;;;;5055057;28;20241;-50
2022/11/17 09:53:20;;;;;;;1.97;1.53;;;18.30;68.00;19.10;98227.00;;;;5071056;28;20579;-50
2022/11/17 09:55:59;;;;;;;2.07;1.40;;;18.30;68.20;19.10;98228.00;;;;5070720;28;20193;-50
2022/11/17 09:58:54;;;;;;;1.83;1.50;;;18.30;68.10;19.10;98237.00;;;;5071654;28;20197;-50
2022/11/17 10:01:20;;;;;;;1.73;1.40;;;18.30;68.30;19.10;98240.00;;;;5052979;28;20165;-50
2022/11/17 10:03:48;;;;;;;3.33;1.63;;;18.30;68.40;19.10;98226.00;;;;5071155;28;20580;-50
2022/11/17 10:06:28;;;;;;;1.97;1.43;;;18.30;68.50;19.10;98241.00;;;;5071176;28;20177;-51
2022/11/17 10:09:27;;;;;;;2.97;1.70;;;18.30;68.50;19.10;98243.00;;;;5055635;28;20223;-52
2022/11/17 10:11:53;;;;;;;1.83;1.30;;;18.20;68.60;19.10;98250.00;;;;5050924;28;20170;-50
2022/11/17 10:14:22;;;;;;;1.40;1.30;;;18.20;68.70;19.10;98253.00;;;;5032826;28;20282;-50
2022/11/17 10:16:56;;;;;;;1.30;1.20;;;18.20;68.70;19.10;98250.00;;;;5033420;28;20190;-50
2022/11/17 10:19:27;;;;;;;1.63;1.53;;;18.20;68.80;19.00;98257.00;;;;5050980;28;20569;-50
2022/11/17 10:22:05;;;;;;;1.60;1.50;;;18.20;68.80;19.00;98255.00;;;;5050371;28;20645;-50
2022/11/17 10:24:35;;;;;;;1.67;1.30;;;18.20;68.90;19.00;98260.00;;;;5050822;28;20200;-52
2022/11/17 10:27:03;;;;;;;1.30;1.20;;;18.10;68.90;19.00;98266.00;;;;5050744;28;20181;-51
2022/11/17 10:29:28;;;;;;;1.57;1.47;;;18.10;68.90;19.00;98261.00;;;;5050524;28;20179;-50
2022/11/17 10:31:54;;;;;;;1.53;1.37;;;18.10;68.90;19.00;98266.00;;;;5000138;28;20196;-50
2022/11/17 10:34:32;;;;;;;2.63;1.47;;;18.10;69.00;19.00;98266.00;;;;5052625;28;20251;-51
2022/11/17 10:37:24;;;;;;;2.27;1.30;;;18.10;69.30;19.00;98251.00;;;;5070597;28;20653;-50
2022/11/17 10:39:50;;;;;;;2.80;1.43;;;18.10;69.20;19.00;98244.00;;;;5066667;28;20718;-51
2022/11/17 10:42:28;;;;;;;1.60;1.50;;;18.10;69.10;19.00;98255.00;;;;5018417;28;20261;-51
2022/11/17 10:44:56;;;;;;;1.97;1.40;;;18.00;69.00;18.90;98258.00;;;;5050221;28;20660;-51
2022/11/17 10:47:38;;;;;;;2.37;1.60;;;18.10;70.00;18.90;98264.00;;;;5019347;28;20179;-51
2022/11/17 10:50:26;;;;;;;2.10;1.50;;;18.10;70.00;18.90;98269.00;;;;5049937;28;20197;-50
2022/11/17 10:52:53;;;;;;;3.07;1.53;;;18.00;70.00;18.90;98273.00;;;;5053201;28;20212;-51
2022/11/17 10:55:20;;;;;;;1.73;1.50;;;18.10;70.30;18.90;98268.00;;;;5056082;28;20598;-52
2022/11/17 10:58:18;;;;;;;1.33;1.13;;;18.00;70.20;18.90;98282.00;;;;5050417;28;20233;-51
2022/11/17 11:00:44;;;;;;;3.77;1.50;;;18.00;70.30;18.90;98272.00;;;;5024751;28;20193;-50
2022/11/17 11:03:22;;;;;;;4.60;1.50;;;18.00;70.00;18.90;98282.00;;;;4999129;28;20178;-51
2022/11/17 11:06:16;;;;;;;1.43;1.20;;;18.00;70.00;18.90;98287.00;;;;5049918;28;20244;-51
2022/11/17 11:09:08;;;;;;;2.03;1.20;;;17.90;69.80;18.80;98281.00;;;;5050074;28;20190;-50
2022/11/17 11:11:47;;;;;;;1.77;1.40;;;17.90;69.80;18.80;98287.00;;;;5031647;28;20181;-50
2022/11/17 11:14:36;;;;;;;5.93;1.57;;;17.90;69.80;18.80;98281.00;;;;5070752;28;20201;-50
2022/11/17 11:17:13;;;;;;;3.27;1.47;;;17.90;69.80;18.80;98228.00;;;;5035748;28;20192;-49
2022/11/17 11:19:50;;;;;;;4.37;1.50;;;17.90;70.10;18.80;98297.00;;;;5053428;28;20189;-51
2022/11/17 11:22:34;;;;;;;4.80;1.30;;;17.90;69.90;18.80;98292.00;;;;5051803;28;20158;-53
2022/11/17 11:25:24;;;;;;;1.50;1.20;;;17.90;70.20;18.80;98292.00;;;;5063236;28;20194;-50
2022/11/17 11:28:04;;;;;;;2.00;1.60;;;17.90;70.60;18.80;98300.00;;;;5034794;28;20186;-50
2022/11/17 11:30:37;;;;;;;1.40;1.30;;;17.90;70.60;18.80;98301.00;;;;5031731;28;20535;-51
2022/11/17 11:33:33;;;;;;;1.20;1.10;;;17.90;70.70;18.80;98301.00;;;;4967318;28;20185;-50
2022/11/17 11:36:52;;;;;;;2.63;1.20;;;17.90;70.70;18.70;98304.00;;;;5031429;28;20663;-52
2022/11/17 11:39:35;;;;;;;1.87;1.40;;;17.90;70.40;18.70;98295.00;;;;5050168;28;20258;-50
2022/11/17 11:42:13;;;;;;;2.30;1.10;;;17.80;70.40;18.70;98306.00;;;;5033424;28;20173;-50
2022/11/17 11:45:00;;;;;;;1.30;1.20;;;17.90;70.60;18.70;98304.00;;;;5049451;28;20199;-52